Time;durP1;ratioP1;P1;durP2;ratioP2;P2;SDS_P1;SDS_P2;PMS_P1;PMS_P2;Temp;Humidity;BMP_temperature;BMP_pressure;BME280_temperature;BME280_humidity;BME280_pressure;Samples;Min_cycle;Max_cycle;Signal;HPM_P1;HPM_P2
2023/04/27 00:01:33;;;;;;;4.73;2.60;;;7.50;1.00;;;;;;5075876;28;20513;-67
2023/04/27 00:04:00;;;;;;;5.37;2.80;;;7.50;1.00;;;;;;5075735;28;20615;-67
2023/04/27 00:06:27;;;;;;;4.73;3.27;;;7.50;1.00;;;;;;5076258;28;20484;-68
2023/04/27 00:08:54;;;;;;;2.70;2.50;;;7.50;1.00;;;;;;5076237;28;20494;-68
2023/04/27 00:11:22;;;;;;;3.50;2.10;;;7.40;1.00;;;;;;5076680;28;20463;-67
2023/04/27 00:13:49;;;;;;;3.10;2.80;;;7.30;1.00;;;;;;5076627;28;20485;-68
2023/04/27 00:16:15;;;;;;;3.37;2.87;;;7.20;5.90;;;;;;5075726;28;20536;-68
2023/04/27 00:18:42;;;;;;;5.20;2.50;;;7.30;20.00;;;;;;5076008;28;20942;-68
2023/04/27 00:21:10;;;;;;;4.23;2.70;;;7.30;20.10;;;;;;5075887;28;20464;-67
2023/04/27 00:23:37;;;;;;;6.80;2.77;;;7.30;3.60;;;;;;5075741;28;20493;-68
2023/04/27 00:26:03;;;;;;;4.43;2.60;;;7.30;6.90;;;;;;5075639;28;20465;-67
2023/04/27 00:28:32;;;;;;;2.63;2.40;;;7.30;1.70;;;;;;5076045;28;20462;-67
2023/04/27 00:30:59;;;;;;;4.00;2.37;;;7.20;1.50;;;;;;5076529;28;20537;-68
2023/04/27 00:33:25;;;;;;;4.80;3.10;;;7.20;23.20;;;;;;5076570;28;20537;-67
2023/04/27 00:35:52;;;;;;;4.47;2.30;;;7.10;4.60;;;;;;5076948;28;20549;-67
2023/04/27 00:38:19;;;;;;;5.17;2.77;;;7.00;1.00;;;;;;5077454;28;20858;-68
2023/04/27 00:40:46;;;;;;;4.73;2.60;;;6.90;4.30;;;;;;5076144;28;20454;-67
2023/04/27 00:43:13;;;;;;;4.90;2.63;;;7.00;6.70;;;;;;5075134;28;20478;-68
2023/04/27 00:45:42;;;;;;;2.80;2.40;;;7.20;1.00;;;;;;5075347;28;20461;-67
2023/04/27 00:48:10;;;;;;;6.43;2.63;;;7.10;1.00;;;;;;5076321;28;20553;-67
2023/04/27 00:50:37;;;;;;;5.30;3.20;;;7.00;1.30;;;;;;5075842;28;20541;-67
2023/04/27 00:53:05;;;;;;;4.17;2.30;;;7.00;12.10;;;;;;5075884;28;20779;-67
2023/04/27 00:55:32;;;;;;;6.40;2.80;;;7.10;7.80;;;;;;5076419;28;20469;-67
2023/04/27 00:57:59;;;;;;;4.83;2.30;;;6.90;8.40;;;;;;5077019;28;20453;-68
2023/04/27 01:00:26;;;;;;;4.77;2.43;;;6.90;12.20;;;;;;5075596;28;20541;-67
2023/04/27 01:02:55;;;;;;;4.40;2.60;;;6.90;21.60;;;;;;5075417;28;20561;-67
2023/04/27 01:05:24;;;;;;;4.00;2.70;;;7.00;18.90;;;;;;5075358;28;20946;-67
2023/04/27 01:07:51;;;;;;;4.20;2.87;;;7.10;13.80;;;;;;5075502;28;20465;-66
2023/04/27 01:10:18;;;;;;;4.20;3.13;;;7.10;12.00;;;;;;5074745;28;20956;-68
2023/04/27 01:12:45;;;;;;;5.07;2.63;;;7.10;1.00;;;;;;5075232;28;20477;-67
2023/04/27 01:15:11;;;;;;;3.70;2.73;;;7.10;1.00;;;;;;5075070;28;20468;-67
2023/04/27 01:17:38;;;;;;;5.63;3.13;;;7.10;1.00;;;;;;5074857;28;20540;-67
2023/04/27 01:20:09;;;;;;;4.60;2.80;;;7.10;1.00;;;;;;5074954;28;20447;-67
2023/04/27 01:22:36;;;;;;;2.70;2.30;;;7.10;1.00;;;;;;5075101;28;20439;-67
2023/04/27 01:25:05;;;;;;;4.83;2.83;;;7.10;1.00;;;;;;5074744;28;20578;-68
2023/04/27 01:27:32;;;;;;;6.40;2.63;;;7.10;2.80;;;;;;5074733;28;20465;-68
2023/04/27 01:29:58;;;;;;;4.73;2.90;;;7.10;7.50;;;;;;5075054;28;20562;-68
2023/04/27 01:32:25;;;;;;;3.97;2.80;;;7.10;3.50;;;;;;5074575;28;20531;-67
2023/04/27 01:34:52;;;;;;;3.13;2.50;;;7.10;6.30;;;;;;5074939;28;20511;-68
2023/04/27 01:37:19;;;;;;;3.17;2.60;;;7.20;10.80;;;;;;5074669;28;20937;-68
2023/04/27 01:39:46;;;;;;;4.87;3.10;;;7.20;15.20;;;;;;5074050;28;20486;-66
2023/04/27 01:42:14;;;;;;;5.73;3.03;;;7.10;16.80;;;;;;5074196;28;20454;-67
2023/04/27 01:44:41;;;;;;;5.47;2.23;;;7.10;30.90;;;;;;5074194;28;20478;-67
2023/04/27 01:47:08;;;;;;;6.27;2.73;;;7.00;40.20;;;;;;5074350;28;20464;-67
2023/04/27 01:49:35;;;;;;;8.10;2.50;;;7.10;43.20;;;;;;5074200;28;20464;-68
2023/04/27 01:52:02;;;;;;;7.30;3.30;;;7.10;40.00;;;;;;5074287;28;21019;-67
2023/04/27 01:54:28;;;;;;;5.37;2.40;;;7.00;72.30;;;;;;5074400;28;20832;-68
2023/04/27 01:56:57;;;;;;;3.03;2.73;;;7.10;72.00;;;;;;5074281;28;20462;-67
2023/04/27 01:59:25;;;;;;;4.77;3.00;;;7.00;82.20;;;;;;5074346;28;20458;-67
2023/04/27 02:01:52;;;;;;;4.53;2.60;;;7.00;81.10;;;;;;5074422;28;20843;-67
2023/04/27 02:04:19;;;;;;;4.87;2.20;;;7.00;94.80;;;;;;5074104;28;20489;-68
2023/04/27 02:06:46;;;;;;;6.60;2.60;;;7.00;93.90;;;;;;5074215;28;20454;-67
2023/04/27 02:09:13;;;;;;;6.77;2.93;;;7.10;93.50;;;;;;5073801;28;20533;-68
2023/04/27 02:11:40;;;;;;;3.20;2.83;;;6.90;89.10;;;;;;5073963;28;20544;-68
2023/04/27 02:14:07;;;;;;;4.50;2.90;;;7.00;88.00;;;;;;5074388;28;20453;-68
2023/04/27 02:16:35;;;;;;;4.97;2.63;;;7.00;66.90;;;;;;5074443;28;20790;-68
2023/04/27 02:19:03;;;;;;;5.63;3.00;;;7.00;62.70;;;;;;5074310;28;20454;-66
2023/04/27 02:21:30;;;;;;;7.63;3.40;;;6.90;47.50;;;;;;5076183;28;20805;-68
2023/04/27 02:23:56;;;;;;;4.63;2.93;;;6.80;54.00;;;;;;5078160;28;20578;-68
2023/04/27 02:26:28;;;;;;;6.87;3.30;;;6.80;72.50;;;;;;5078121;28;20468;-67
2023/04/27 02:28:55;;;;;;;5.97;3.07;;;6.80;87.30;;;;;;5078281;28;20564;-67
2023/04/27 02:31:22;;;;;;;5.20;3.10;;;6.80;85.30;;;;;;5077885;28;20557;-67
2023/04/27 02:33:50;;;;;;;5.40;2.97;;;6.80;83.40;;;;;;5079191;28;20464;-68
2023/04/27 02:36:17;;;;;;;4.43;2.77;;;6.60;87.60;;;;;;5078435;28;20493;-69
2023/04/27 02:38:44;;;;;;;7.63;2.90;;;6.60;99.90;;;;;;5077692;28;20544;-67
2023/04/27 02:41:11;;;;;;;4.43;2.60;;;6.70;95.20;;;;;;5078186;28;20464;-68
2023/04/27 02:43:38;;;;;;;8.43;3.13;;;6.70;92.70;;;;;;5077691;28;20513;-68
2023/04/27 02:46:05;;;;;;;4.13;2.83;;;6.70;88.60;;;;;;5077965;28;20464;-68
2023/04/27 02:48:32;;;;;;;8.60;2.87;;;6.70;53.60;;;;;;5078177;28;20454;-69
2023/04/27 02:51:02;;;;;;;5.80;3.20;;;6.70;56.20;;;;;;5077734;28;20458;-68
2023/04/27 02:53:29;;;;;;;7.10;3.10;;;6.70;65.60;;;;;;5077778;28;20466;-68
2023/04/27 02:55:57;;;;;;;5.07;3.27;;;6.70;84.40;;;;;;5077350;28;20450;-68
2023/04/27 02:58:24;;;;;;;7.57;2.80;;;6.70;72.40;;;;;;5077073;28;20458;-68
2023/04/27 03:00:54;;;;;;;5.60;3.17;;;6.70;75.90;;;;;;5077831;28;20454;-68
2023/04/27 03:03:21;;;;;;;5.23;2.70;;;6.80;69.20;;;;;;5077402;28;20504;-67
2023/04/27 03:05:48;;;;;;;7.27;3.33;;;6.70;61.10;;;;;;5077265;28;20454;-67
2023/04/27 03:08:16;;;;;;;11.80;3.13;;;6.70;61.20;;;;;;5077016;28;20551;-67
2023/04/27 03:10:43;;;;;;;6.53;2.40;;;6.70;39.30;;;;;;5076863;28;20454;-67
2023/04/27 03:13:10;;;;;;;4.37;2.50;;;6.70;36.00;;;;;;5077082;28;20553;-67
2023/04/27 03:15:37;;;;;;;5.77;2.50;;;6.70;43.10;;;;;;5077237;28;20464;-68
2023/04/27 03:18:04;;;;;;;4.33;2.70;;;6.70;31.10;;;;;;5076861;28;20519;-67
2023/04/27 03:20:31;;;;;;;5.37;2.40;;;6.60;34.20;;;;;;5076767;28;20549;-67
2023/04/27 03:22:58;;;;;;;3.13;2.47;;;6.60;39.60;;;;;;5076670;28;20454;-67
2023/04/27 03:25:26;;;;;;;4.57;2.20;;;6.60;43.20;;;;;;5076556;28;20457;-67
2023/04/27 03:27:53;;;;;;;4.70;2.80;;;6.50;47.80;;;;;;5076886;28;20839;-67
2023/04/27 03:30:20;;;;;;;7.30;2.80;;;6.60;46.20;;;;;;5076548;28;20970;-67
2023/04/27 03:32:46;;;;;;;4.03;2.60;;;6.60;52.00;;;;;;5076667;28;20545;-67
2023/04/27 03:35:14;;;;;;;3.83;2.53;;;6.50;46.00;;;;;;5076762;28;20482;-67
2023/04/27 03:37:40;;;;;;;6.63;2.70;;;6.50;50.40;;;;;;5076530;28;20515;-68
2023/04/27 03:40:08;;;;;;;3.50;2.80;;;6.50;42.30;;;;;;5076919;28;20532;-67
2023/04/27 03:42:36;;;;;;;5.73;2.77;;;6.50;49.90;;;;;;5076788;28;20545;-69
2023/04/27 03:45:05;;;;;;;5.40;2.43;;;6.50;57.20;;;;;;5076413;28;20482;-67
2023/04/27 03:47:32;;;;;;;6.43;2.90;;;6.50;57.70;;;;;;5076455;28;20454;-68
2023/04/27 03:49:59;;;;;;;5.37;2.50;;;6.50;58.00;;;;;;5076508;28;20454;-68
2023/04/27 03:52:26;;;;;;;4.33;2.53;;;6.50;51.70;;;;;;5076300;28;20891;-68
2023/04/27 03:54:53;;;;;;;5.73;2.73;;;6.60;57.30;;;;;;5076123;28;20470;-67
2023/04/27 03:57:20;;;;;;;5.93;2.50;;;6.50;59.30;;;;;;5076272;28;20454;-68
2023/04/27 03:59:48;;;;;;;3.87;2.33;;;6.60;68.10;;;;;;5076418;28;20509;-68
2023/04/27 04:02:16;;;;;;;8.37;2.87;;;6.60;72.00;;;;;;5076368;28;20472;-68
2023/04/27 04:04:42;;;;;;;7.47;2.90;;;6.60;88.70;;;;;;5075810;28;20482;-68
2023/04/27 04:07:09;;;;;;;6.97;2.40;;;6.60;67.30;;;;;;5076438;28;20484;-68
2023/04/27 04:09:36;;;;;;;7.83;3.03;;;6.60;91.40;;;;;;5076420;28;20553;-68
2023/04/27 04:12:04;;;;;;;11.10;3.33;;;6.50;92.40;;;;;;5076262;28;20523;-68
2023/04/27 04:14:31;;;;;;;4.93;2.60;;;6.50;99.90;;;;;;5076135;28;20446;-67
2023/04/27 04:16:59;;;;;;;6.30;3.10;;;6.50;99.90;;;;;;5075836;28;20902;-67
2023/04/27 04:19:26;;;;;;;11.40;3.13;;;6.70;99.90;;;;;;5076099;28;20531;-68
2023/04/27 04:21:53;;;;;;;4.83;3.07;;;6.60;86.80;;;;;;5075909;28;20484;-67
2023/04/27 04:24:20;;;;;;;7.13;2.70;;;6.60;87.90;;;;;;5075927;28;20514;-68
2023/04/27 04:26:47;;;;;;;3.97;2.33;;;6.60;78.70;;;;;;5075960;28;20454;-67
2023/04/27 04:29:14;;;;;;;4.90;2.80;;;6.70;66.70;;;;;;5075755;28;20541;-68
2023/04/27 04:31:41;;;;;;;3.43;2.70;;;6.50;77.50;;;;;;5075609;28;20545;-67
2023/04/27 04:34:09;;;;;;;4.23;2.70;;;6.60;94.40;;;;;;5075839;28;20454;-67
2023/04/27 04:36:36;;;;;;;5.50;2.87;;;6.70;80.10;;;;;;5075764;28;20454;-68
2023/04/27 04:39:04;;;;;;;5.20;3.00;;;6.70;53.80;;;;;;5075462;28;20835;-67
2023/04/27 04:41:31;;;;;;;3.67;2.47;;;6.60;54.20;;;;;;5075299;28;20454;-68
2023/04/27 04:43:58;;;;;;;6.03;3.37;;;6.60;71.90;;;;;;5074892;28;20539;-69
2023/04/27 04:46:25;;;;;;;9.70;3.30;;;6.50;91.60;;;;;;5075521;28;20450;-67
2023/04/27 04:48:52;;;;;;;6.27;3.47;;;6.50;95.80;;;;;;5075926;28;20541;-67
2023/04/27 04:51:21;;;;;;;6.93;3.00;;;6.50;76.70;;;;;;5075632;28;20937;-68
2023/04/27 04:53:48;;;;;;;8.10;3.03;;;6.50;99.90;;;;;;5075330;28;20456;-68
2023/04/27 04:56:15;;;;;;;5.23;2.77;;;6.60;99.80;;;;;;5075645;28;20847;-68
2023/04/27 04:58:42;;;;;;;7.27;2.90;;;6.60;98.50;;;;;;5075666;28;20467;-68
2023/04/27 05:01:09;;;;;;;6.67;3.40;;;6.60;99.90;;;;;;5075386;28;20544;-68
2023/04/27 05:03:36;;;;;;;11.60;5.70;;;6.70;98.00;;;;;;5074770;28;20494;-69
2023/04/27 05:06:03;;;;;;;3.33;2.80;;;6.70;99.90;;;;;;5075287;28;21002;-68
2023/04/27 05:08:31;;;;;;;6.93;3.30;;;6.60;99.90;;;;;;5075324;28;20947;-67
2023/04/27 05:10:58;;;;;;;5.57;2.83;;;6.60;99.90;;;;;;5075179;28;20454;-68
2023/04/27 05:13:25;;;;;;;5.67;3.03;;;6.60;99.90;;;;;;5074517;28;20454;-67
2023/04/27 05:15:52;;;;;;;6.77;3.90;;;6.70;99.90;;;;;;5074827;28;20806;-68
2023/04/27 05:18:19;;;;;;;9.63;3.50;;;6.80;99.90;;;;;;5075477;28;20454;-67
2023/04/27 05:20:46;;;;;;;9.17;3.07;;;6.70;99.40;;;;;;5075736;28;20454;-68
2023/04/27 05:23:13;;;;;;;4.93;2.60;;;6.60;99.90;;;;;;5075342;28;20548;-68
2023/04/27 05:25:41;;;;;;;5.00;3.27;;;6.60;99.90;;;;;;5074844;28;20493;-67
2023/04/27 05:28:08;;;;;;;4.13;3.03;;;6.70;99.90;;;;;;5074633;28;20451;-67
2023/04/27 05:30:35;;;;;;;6.20;3.27;;;6.70;99.90;;;;;;5074650;28;20473;-67
2023/04/27 05:33:02;;;;;;;9.80;4.40;;;6.70;99.90;;;;;;5074670;28;20469;-67
2023/04/27 05:35:29;;;;;;;5.20;2.90;;;6.70;99.90;;;;;;5074231;28;20550;-68
2023/04/27 05:37:56;;;;;;;7.30;3.83;;;6.80;99.90;;;;;;5074033;28;20906;-68
2023/04/27 05:40:23;;;;;;;7.07;3.60;;;6.80;99.90;;;;;;5074192;28;20534;-68
2023/04/27 05:42:51;;;;;;;7.10;3.13;;;6.80;99.90;;;;;;5074601;28;20493;-68
2023/04/27 05:45:18;;;;;;;7.40;4.00;;;6.90;99.90;;;;;;5074497;28;20569;-68
2023/04/27 05:47:45;;;;;;;5.43;3.20;;;6.90;99.90;;;;;;5074262;28;20938;-68
2023/04/27 05:50:12;;;;;;;8.70;3.67;;;6.80;99.90;;;;;;5074415;28;20454;-68
2023/04/27 05:52:39;;;;;;;6.17;3.03;;;6.90;99.90;;;;;;5074226;28;20541;-68
2023/04/27 05:55:07;;;;;;;5.80;3.10;;;7.00;99.90;;;;;;5075605;28;20450;-67
2023/04/27 05:57:34;;;;;;;6.70;3.40;;;7.00;99.90;;;;;;5078092;28;20458;-67
2023/04/27 06:00:07;;;;;;;7.50;3.13;;;7.00;99.90;;;;;;5078737;28;20560;-68
2023/04/27 06:02:34;;;;;;;8.10;4.00;;;7.10;99.90;;;;;;5078871;28;20545;-68
2023/04/27 06:05:01;;;;;;;5.20;3.27;;;7.10;99.90;;;;;;5078071;28;20513;-67
2023/04/27 06:07:28;;;;;;;9.50;3.40;;;7.20;99.90;;;;;;5078389;28;20767;-68
2023/04/27 06:09:55;;;;;;;12.63;3.50;;;7.20;99.90;;;;;;5078212;28;20465;-67
2023/04/27 06:12:22;;;;;;;5.90;3.27;;;7.20;99.90;;;;;;5078355;28;20545;-68
2023/04/27 06:14:49;;;;;;;12.63;6.50;;;7.20;80.00;;;;;;5077976;28;20454;-68
2023/04/27 06:17:17;;;;;;;5.20;2.90;;;7.20;88.70;;;;;;5078171;28;20454;-68
2023/04/27 06:19:44;;;;;;;10.07;3.07;;;7.30;72.50;;;;;;5078218;28;20554;-68
2023/04/27 06:22:11;;;;;;;5.20;2.87;;;7.20;69.50;;;;;;5078030;28;20488;-67
2023/04/27 06:24:38;;;;;;;3.40;2.73;;;7.20;56.20;;;;;;5078158;28;20496;-68
2023/04/27 06:27:06;;;;;;;3.10;2.47;;;7.10;54.10;;;;;;5077848;28;20453;-68
2023/04/27 06:29:33;;;;;;;5.70;2.90;;;7.10;47.90;;;;;;5078349;28;20529;-68
2023/04/27 06:32:00;;;;;;;6.97;3.10;;;7.00;63.90;;;;;;5077828;28;20488;-67
2023/04/27 06:34:28;;;;;;;8.17;2.40;;;7.00;49.30;;;;;;5077579;28;20907;-68
2023/04/27 06:36:55;;;;;;;4.40;2.53;;;6.90;47.40;;;;;;5077637;28;20760;-68
2023/04/27 06:39:22;;;;;;;7.93;3.63;;;6.90;42.00;;;;;;5077685;28;20486;-67
2023/04/27 06:41:49;;;;;;;3.30;2.33;;;6.90;58.00;;;;;;5077687;28;20464;-68
2023/04/27 06:44:15;;;;;;;4.83;3.20;;;7.00;45.20;;;;;;5077632;28;20545;-68
2023/04/27 06:46:42;;;;;;;4.67;2.83;;;7.00;76.40;;;;;;5078670;28;20458;-67
2023/04/27 06:49:09;;;;;;;7.83;3.90;;;6.90;72.30;;;;;;5077818;28;20548;-68
2023/04/27 06:51:37;;;;;;;6.23;2.73;;;7.00;45.10;;;;;;5077317;28;20541;-69
2023/04/27 06:54:05;;;;;;;12.77;4.00;;;7.10;44.00;;;;;;5077257;28;20458;-68
2023/04/27 06:56:31;;;;;;;6.43;2.80;;;7.10;78.30;;;;;;5077319;28;20458;-68
2023/04/27 06:58:58;;;;;;;3.63;2.50;;;7.20;57.20;;;;;;5077340;28;20549;-68
2023/04/27 07:01:25;;;;;;;4.30;2.33;;;7.30;58.70;;;;;;5076976;28;20930;-67
2023/04/27 07:03:52;;;;;;;3.50;2.20;;;7.30;68.10;;;;;;5077399;28;20528;-68
2023/04/27 07:06:19;;;;;;;7.40;2.80;;;7.40;56.00;;;;;;5076360;28;20492;-67
2023/04/27 07:08:47;;;;;;;7.43;3.20;;;7.40;62.50;;;;;;5077089;28;20454;-69
2023/04/27 07:11:15;;;;;;;5.17;2.50;;;7.40;51.10;;;;;;5077094;28;20541;-67
2023/04/27 07:13:42;;;;;;;3.83;2.87;;;7.40;33.10;;;;;;5077513;28;20470;-69
2023/04/27 07:16:09;;;;;;;7.53;2.50;;;7.50;49.10;;;;;;5077135;28;20469;-67
2023/04/27 07:18:36;;;;;;;12.30;2.93;;;7.50;71.30;;;;;;5076869;28;20530;-68
2023/04/27 07:21:03;;;;;;;4.43;2.60;;;7.60;47.70;;;;;;5076687;28;20511;-67
2023/04/27 07:23:29;;;;;;;5.60;2.93;;;7.70;58.50;;;;;;5076719;28;20763;-68
2023/04/27 07:25:58;;;;;;;3.60;2.10;;;7.80;68.50;;;;;;5076626;28;20504;-69
2023/04/27 07:28:25;;;;;;;5.30;2.47;;;7.90;57.60;;;;;;5076542;28;20982;-69
2023/04/27 07:30:51;;;;;;;5.40;3.10;;;8.00;55.80;;;;;;5077078;28;20549;-68
2023/04/27 07:33:19;;;;;;;4.07;2.50;;;8.10;46.10;;;;;;5076986;28;20524;-67
2023/04/27 07:35:45;;;;;;;5.90;2.70;;;8.30;48.20;;;;;;5076520;28;20987;-69
2023/04/27 07:38:12;;;;;;;5.07;2.20;;;8.30;31.00;;;;;;5076660;28;20565;-68
2023/04/27 07:40:39;;;;;;;11.13;2.50;;;8.40;36.30;;;;;;5076640;28;20995;-68
2023/04/27 07:43:08;;;;;;;8.33;2.03;;;8.40;74.20;;;;;;5076579;28;20458;-68
2023/04/27 07:45:36;;;;;;;4.43;2.30;;;8.40;73.50;;;;;;5076101;28;21008;-67
2023/04/27 07:48:03;;;;;;;6.10;2.10;;;8.40;69.00;;;;;;5076308;28;20943;-67
2023/04/27 07:50:30;;;;;;;3.23;2.47;;;8.40;99.90;;;;;;5076714;28;20470;-68
2023/04/27 07:52:57;;;;;;;5.43;2.47;;;8.50;55.80;;;;;;5076426;28;20458;-67
2023/04/27 07:55:25;;;;;;;3.73;2.20;;;8.60;57.10;;;;;;5076537;28;20450;-68
2023/04/27 07:57:52;;;;;;;2.33;2.13;;;8.60;71.70;;;;;;5076273;28;20492;-67
2023/04/27 08:00:22;;;;;;;3.77;2.60;;;8.50;60.60;;;;;;5076509;28;20778;-68
2023/04/27 08:02:49;;;;;;;4.93;3.00;;;8.60;53.40;;;;;;5076238;28;20454;-68
2023/04/27 08:05:16;;;;;;;6.00;2.60;;;8.60;46.50;;;;;;5076238;28;20478;-69
2023/04/27 08:07:43;;;;;;;2.50;2.23;;;8.60;87.70;;;;;;5076197;28;20783;-68
2023/04/27 08:10:10;;;;;;;4.27;2.50;;;8.60;40.80;;;;;;5076263;28;20788;-69
2023/04/27 08:12:37;;;;;;;7.10;2.50;;;8.70;39.90;;;;;;5076392;28;20543;-68
2023/04/27 08:15:05;;;;;;;3.33;2.43;;;8.60;54.50;;;;;;5076441;28;20462;-67
2023/04/27 08:17:35;;;;;;;6.20;2.57;;;8.50;67.60;;;;;;5075870;28;20486;-68
2023/04/27 08:20:02;;;;;;;4.60;3.00;;;8.50;47.40;;;;;;5075318;28;20454;-68
2023/04/27 08:22:29;;;;;;;7.33;2.37;;;8.50;63.60;;;;;;5077852;28;20458;-68
2023/04/27 08:24:55;;;;;;;3.77;2.30;;;8.30;49.20;;;;;;5076763;28;20921;-67
2023/04/27 08:27:22;;;;;;;5.77;2.67;;;8.30;81.40;;;;;;5075668;28;20458;-68
2023/04/27 08:29:49;;;;;;;5.87;2.40;;;8.50;99.90;;;;;;5075591;28;20866;-68
2023/04/27 08:32:16;;;;;;;4.90;2.60;;;8.70;80.00;;;;;;5076297;28;20454;-68
2023/04/27 08:34:45;;;;;;;8.93;2.60;;;8.90;99.90;;;;;;5075260;28;20537;-68
2023/04/27 08:37:12;;;;;;;3.47;2.10;;;9.00;99.90;;;;;;5075840;28;20553;-68
2023/04/27 08:39:39;;;;;;;2.80;2.30;;;9.10;93.40;;;;;;5076012;28;20581;-67
2023/04/27 08:42:15;;;;;;;3.80;2.10;;;9.00;96.80;;;;;;5076088;28;20450;-67
2023/04/27 08:44:43;;;;;;;6.40;2.50;;;9.00;93.20;;;;;;5075557;28;20477;-68
2023/04/27 08:47:11;;;;;;;3.10;2.07;;;8.80;91.20;;;;;;5075359;28;20960;-68
2023/04/27 08:49:40;;;;;;;3.10;2.27;;;8.80;95.80;;;;;;5075431;28;20469;-67
2023/04/27 08:52:13;;;;;;;3.90;2.57;;;8.80;99.90;;;;;;5075713;28;20458;-68
2023/04/27 08:54:40;;;;;;;9.27;2.10;;;8.70;99.90;;;;;;5075777;28;20497;-67
2023/04/27 08:57:11;;;;;;;3.37;2.70;;;8.70;97.60;;;;;;5075776;28;20457;-68
2023/04/27 08:59:39;;;;;;;6.10;3.23;;;8.70;99.90;;;;;;5075329;28;20462;-67
2023/04/27 09:02:06;;;;;;;10.20;3.40;;;8.70;99.90;;;;;;5075384;28;20541;-68
2023/04/27 09:04:39;;;;;;;4.97;2.60;;;8.80;99.90;;;;;;5075608;28;20540;-68
2023/04/27 09:07:16;;;;;;;2.90;2.30;;;8.90;99.90;;;;;;5075461;28;20492;-67
2023/04/27 09:09:44;;;;;;;4.50;2.50;;;8.70;99.90;;;;;;5076377;28;20470;-67
2023/04/27 09:12:16;;;;;;;4.83;2.47;;;8.50;99.90;;;;;;5076943;28;20462;-68
2023/04/27 09:14:43;;;;;;;6.20;2.70;;;8.40;99.60;;;;;;5075676;28;20545;-69
2023/04/27 09:17:10;;;;;;;3.97;2.53;;;8.40;99.90;;;;;;5076257;28;20477;-68
2023/04/27 09:19:37;;;;;;;8.60;2.80;;;8.50;99.90;;;;;;5075663;28;20795;-67
2023/04/27 09:22:09;;;;;;;4.67;2.80;;;8.60;99.90;;;;;;5077094;28;20465;-68
2023/04/27 09:24:38;;;;;;;6.30;3.50;;;8.50;99.90;;;;;;5075380;28;20438;-68
2023/04/27 09:27:07;;;;;;;3.20;2.90;;;8.60;99.90;;;;;;5075977;28;20573;-67
2023/04/27 09:29:36;;;;;;;10.47;2.50;;;8.60;99.90;;;;;;5074988;28;20923;-68
2023/04/27 09:32:14;;;;;;;3.20;2.60;;;8.60;99.90;;;;;;5075962;28;20458;-67
2023/04/27 09:34:41;;;;;;;3.60;2.87;;;8.60;99.90;;;;;;5075504;28;20443;-67
2023/04/27 09:37:08;;;;;;;2.83;2.63;;;8.70;99.90;;;;;;5075428;28;20450;-67
2023/04/27 09:39:37;;;;;;;3.53;2.70;;;8.70;99.90;;;;;;5074814;28;20513;-68
2023/04/27 09:42:06;;;;;;;4.57;3.10;;;8.70;99.90;;;;;;5075468;28;20458;-68
2023/04/27 09:44:33;;;;;;;4.37;2.80;;;8.80;99.90;;;;;;5074752;28;20453;-68
2023/04/27 09:47:01;;;;;;;4.73;3.07;;;9.00;99.90;;;;;;5075078;28;20549;-68
2023/04/27 09:49:28;;;;;;;3.30;2.60;;;9.20;99.90;;;;;;5075017;28;20470;-68
2023/04/27 09:51:57;;;;;;;5.63;2.30;;;9.10;99.90;;;;;;5074739;28;20830;-67
2023/04/27 09:54:29;;;;;;;4.07;2.50;;;9.20;99.90;;;;;;5074715;28;20926;-67
2023/04/27 09:57:12;;;;;;;2.63;2.13;;;9.10;99.90;;;;;;5075288;28;20438;-67
2023/04/27 09:59:55;;;;;;;2.30;2.10;;;8.90;99.90;;;;;;5076971;28;20442;-68
2023/04/27 10:02:24;;;;;;;4.80;2.13;;;9.00;99.90;;;;;;5077089;28;20474;-67
2023/04/27 10:05:15;;;;;;;5.23;2.90;;;9.00;99.90;;;;;;5076104;28;20450;-67
2023/04/27 10:07:42;;;;;;;5.20;2.90;;;8.90;99.90;;;;;;5076093;28;20820;-67
2023/04/27 10:10:17;;;;;;;4.10;2.83;;;8.80;99.90;;;;;;5074686;28;20450;-67
2023/04/27 10:12:56;;;;;;;3.00;2.13;;;8.90;99.90;;;;;;5073927;28;20430;-67
2023/04/27 10:15:26;;;;;;;2.63;1.90;;;9.00;99.90;;;;;;5074421;28;20438;-68
2023/04/27 10:17:57;;;;;;;7.83;2.40;;;9.20;99.90;;;;;;5074373;28;20918;-68
2023/04/27 10:20:30;;;;;;;2.50;1.60;;;9.30;99.90;;;;;;5074906;28;20435;-68
2023/04/27 10:23:00;;;;;;;3.10;1.80;;;9.50;99.90;;;;;;5074257;28;20783;-68
2023/04/27 10:25:28;;;;;;;7.60;1.93;;;9.60;99.90;;;;;;5074509;28;20458;-67
2023/04/27 10:27:58;;;;;;;2.70;1.77;;;9.90;99.90;;;;;;5074877;28;20490;-68
2023/04/27 10:30:26;;;;;;;7.77;2.97;;;10.20;99.90;;;;;;5074573;28;20541;-69
2023/04/27 10:32:55;;;;;;;4.13;1.80;;;10.30;99.90;;;;;;5074163;28;20470;-67
2023/04/27 10:35:23;;;;;;;3.60;2.70;;;10.20;99.90;;;;;;5074157;28;20450;-67
2023/04/27 10:37:51;;;;;;;2.20;2.00;;;10.00;99.90;;;;;;5073790;28;20852;-68
2023/04/27 10:40:18;;;;;;;4.93;1.83;;;10.10;99.90;;;;;;5074313;28;20880;-68
2023/04/27 10:42:48;;;;;;;3.67;2.23;;;10.00;99.90;;;;;;5076894;28;20549;-68
2023/04/27 10:45:26;;;;;;;3.63;2.20;;;9.90;99.90;;;;;;5078183;28;20532;-67
2023/04/27 10:47:58;;;;;;;2.83;2.00;;;10.00;99.90;;;;;;5078119;28;20446;-67
2023/04/27 10:50:25;;;;;;;4.20;2.17;;;10.20;99.90;;;;;;5077695;28;20453;-67
2023/04/27 10:52:52;;;;;;;2.00;1.77;;;10.30;99.90;;;;;;5077806;28;20791;-67
2023/04/27 10:55:21;;;;;;;1.83;1.63;;;10.60;99.90;;;;;;5077590;28;20458;-68
2023/04/27 10:57:49;;;;;;;2.73;1.60;;;10.70;99.90;;;;;;5077102;28;20462;-67
2023/04/27 11:00:24;;;;;;;4.47;1.60;;;10.70;99.90;;;;;;5077536;28;20809;-67
2023/04/27 11:02:51;;;;;;;3.57;2.33;;;10.70;99.90;;;;;;5077671;28;20473;-67
2023/04/27 11:05:19;;;;;;;3.50;1.90;;;10.50;99.90;;;;;;5077458;28;20466;-67
2023/04/27 11:07:46;;;;;;;2.33;2.00;;;10.40;99.90;;;;;;5077202;28;20481;-68
2023/04/27 11:10:17;;;;;;;3.03;2.17;;;10.40;93.10;;;;;;5077439;28;21029;-67
2023/04/27 11:12:44;;;;;;;2.87;1.90;;;10.30;90.40;;;;;;5077307;28;20458;-67
2023/04/27 11:15:13;;;;;;;3.97;2.70;;;10.20;76.10;;;;;;5077265;28;20454;-68
2023/04/27 11:17:41;;;;;;;3.00;2.10;;;10.20;97.50;;;;;;5076858;28;20462;-68
2023/04/27 11:20:09;;;;;;;3.70;2.20;;;10.00;99.90;;;;;;5077087;28;20457;-68
2023/04/27 11:22:44;;;;;;;3.20;2.23;;;10.10;94.50;;;;;;5076994;28;20462;-68
2023/04/27 11:25:11;;;;;;;4.17;1.83;;;10.10;88.60;;;;;;5077422;28;20443;-67
2023/04/27 11:27:44;;;;;;;4.43;1.87;;;10.10;99.90;;;;;;5077363;28;20486;-69
2023/04/27 11:30:20;;;;;;;4.40;1.90;;;10.20;99.90;;;;;;5077630;28;20454;-69
2023/04/27 11:32:50;;;;;;;3.60;1.97;;;10.40;99.90;;;;;;5077121;28;20438;-68
2023/04/27 11:35:18;;;;;;;4.40;2.30;;;10.50;99.90;;;;;;5077389;28;20469;-68
2023/04/27 11:37:46;;;;;;;2.87;1.80;;;10.50;99.90;;;;;;5077528;28;20827;-67
2023/04/27 11:40:14;;;;;;;2.80;2.07;;;10.60;99.90;;;;;;5077141;28;20442;-68
2023/04/27 11:42:45;;;;;;;4.90;2.10;;;10.60;99.90;;;;;;5076967;28;20454;-69
2023/04/27 11:45:12;;;;;;;2.97;1.80;;;10.60;99.90;;;;;;5077286;28;20538;-67
2023/04/27 11:47:41;;;;;;;5.93;1.80;;;10.80;99.90;;;;;;5076965;28;20580;-67
2023/04/27 11:50:10;;;;;;;2.40;1.90;;;10.70;99.90;;;;;;5076135;28;20462;-68
2023/04/27 11:52:39;;;;;;;2.17;1.97;;;10.40;99.90;;;;;;5076233;28;20462;-68
2023/04/27 11:55:14;;;;;;;2.47;1.60;;;10.40;99.90;;;;;;5076917;28;20825;-67
2023/04/27 11:57:41;;;;;;;4.13;1.70;;;10.50;99.90;;;;;;5076496;28;20768;-67
2023/04/27 12:00:12;;;;;;;1.90;1.80;;;10.80;99.90;;;;;;5077029;28;20486;-68
2023/04/27 12:02:39;;;;;;;2.27;1.87;;;10.60;99.90;;;;;;5076261;28;20443;-68
2023/04/27 12:05:10;;;;;;;3.13;1.93;;;10.60;99.90;;;;;;5076646;28;20563;-68
2023/04/27 12:07:37;;;;;;;2.37;1.77;;;10.60;99.90;;;;;;5076689;28;20532;-68
2023/04/27 12:10:05;;;;;;;3.17;1.73;;;10.70;99.90;;;;;;5076762;28;20549;-68
2023/04/27 12:12:32;;;;;;;4.70;1.97;;;10.60;99.90;;;;;;5076158;28;20533;-67
2023/04/27 12:14:59;;;;;;;1.93;1.53;;;10.30;99.90;;;;;;5075971;28;20454;-68
2023/04/27 12:17:26;;;;;;;4.23;1.93;;;10.20;99.90;;;;;;5076398;28;20786;-68
2023/04/27 12:19:53;;;;;;;3.13;1.67;;;10.30;99.90;;;;;;5077392;28;20862;-67
2023/04/27 12:22:21;;;;;;;2.97;2.17;;;10.50;99.90;;;;;;5077293;28;20458;-69
2023/04/27 12:24:48;;;;;;;3.10;1.80;;;10.70;99.90;;;;;;5076118;28;20458;-68
2023/04/27 12:27:15;;;;;;;2.03;1.60;;;11.00;99.90;;;;;;5076685;28;20474;-68
2023/04/27 12:29:42;;;;;;;2.93;1.70;;;11.30;99.90;;;;;;5077066;28;20465;-68
2023/04/27 12:32:09;;;;;;;4.90;2.17;;;11.70;99.90;;;;;;5076730;28;20458;-68
2023/04/27 12:34:38;;;;;;;2.30;1.90;;;11.90;99.90;;;;;;5077208;28;20450;-68
2023/04/27 12:37:05;;;;;;;3.03;1.77;;;11.90;99.90;;;;;;5077704;28;20447;-67
2023/04/27 12:39:33;;;;;;;6.90;1.70;;;12.20;99.90;;;;;;5077366;28;20511;-69
2023/04/27 12:42:01;;;;;;;3.50;2.20;;;12.20;99.90;;;;;;5076306;28;20573;-68
2023/04/27 12:44:28;;;;;;;7.17;3.03;;;12.10;99.90;;;;;;5077359;28;20535;-68
2023/04/27 12:46:55;;;;;;;6.30;1.87;;;12.10;99.90;;;;;;5078755;28;20843;-68
2023/04/27 12:49:22;;;;;;;3.30;1.73;;;12.00;99.90;;;;;;5078024;28;20547;-68
2023/04/27 12:51:50;;;;;;;3.20;2.00;;;12.00;99.90;;;;;;5078731;28;20458;-68
2023/04/27 12:54:17;;;;;;;3.87;1.93;;;12.10;99.90;;;;;;5078118;28;20470;-68
2023/04/27 12:56:45;;;;;;;4.00;2.03;;;12.10;99.90;;;;;;5079157;28;20486;-69
2023/04/27 12:59:12;;;;;;;4.20;1.90;;;12.30;99.90;;;;;;5079724;28;20453;-68